sensor_id;sensor_type;location;lat;lon;timestamp;P1;durP1;ratioP1;P2;durP2;ratioP2
53503;SDS011;39387;50.998;22.340;2023-03-19T00:02:06;12.32;;;5.85;;
53503;SDS011;39387;50.998;22.340;2023-03-19T00:04:33;10.95;;;6.22;;
53503;SDS011;39387;50.998;22.340;2023-03-19T00:07:01;11.88;;;5.60;;
53503;SDS011;39387;50.998;22.340;2023-03-19T00:09:29;10.70;;;5.55;;
53503;SDS011;39387;50.998;22.340;2023-03-19T00:11:57;11.38;;;6.40;;
53503;SDS011;39387;50.998;22.340;2023-03-19T00:14:24;8.95;;;6.07;;
53503;SDS011;39387;50.998;22.340;2023-03-19T00:16:52;12.98;;;6.13;;
53503;SDS011;39387;50.998;22.340;2023-03-19T00:19:19;11.07;;;5.43;;
53503;SDS011;39387;50.998;22.340;2023-03-19T00:21:47;10.40;;;5.15;;
53503;SDS011;39387;50.998;22.340;2023-03-19T00:24:14;9.75;;;5.13;;
53503;SDS011;39387;50.998;22.340;2023-03-19T00:26:43;12.85;;;6.20;;
53503;SDS011;39387;50.998;22.340;2023-03-19T00:29:10;10.77;;;5.78;;
53503;SDS011;39387;50.998;22.340;2023-03-19T00:31:39;12.95;;;5.82;;
53503;SDS011;39387;50.998;22.340;2023-03-19T00:34:07;13.75;;;6.65;;
53503;SDS011;39387;50.998;22.340;2023-03-19T00:36:35;14.73;;;6.78;;
53503;SDS011;39387;50.998;22.340;2023-03-19T00:39:03;10.02;;;5.97;;
53503;SDS011;39387;50.998;22.340;2023-03-19T00:41:31;11.70;;;5.80;;
53503;SDS011;39387;50.998;22.340;2023-03-19T00:43:59;10.50;;;5.82;;
53503;SDS011;39387;50.998;22.340;2023-03-19T00:46:27;12.88;;;6.55;;
53503;SDS011;39387;50.998;22.340;2023-03-19T00:48:54;9.60;;;5.57;;
53503;SDS011;39387;50.998;22.340;2023-03-19T00:51:23;12.95;;;6.35;;
53503;SDS011;39387;50.998;22.340;2023-03-19T00:53:51;11.57;;;6.03;;
53503;SDS011;39387;50.998;22.340;2023-03-19T00:56:18;12.50;;;6.20;;
53503;SDS011;39387;50.998;22.340;2023-03-19T00:58:46;10.70;;;6.10;;
53503;SDS011;39387;50.998;22.340;2023-03-19T01:01:15;12.35;;;6.68;;
53503;SDS011;39387;50.998;22.340;2023-03-19T01:03:43;11.77;;;6.07;;
53503;SDS011;39387;50.998;22.340;2023-03-19T01:06:11;9.82;;;6.05;;
53503;SDS011;39387;50.998;22.340;2023-03-19T01:08:38;10.77;;;6.22;;
53503;SDS011;39387;50.998;22.340;2023-03-19T01:11:07;13.63;;;5.90;;
53503;SDS011;39387;50.998;22.340;2023-03-19T01:13:36;13.38;;;6.32;;
53503;SDS011;39387;50.998;22.340;2023-03-19T01:16:04;10.95;;;6.28;;
53503;SDS011;39387;50.998;22.340;2023-03-19T01:18:33;10.60;;;6.28;;
53503;SDS011;39387;50.998;22.340;2023-03-19T01:21:01;12.48;;;6.13;;
53503;SDS011;39387;50.998;22.340;2023-03-19T01:23:29;11.63;;;5.65;;
53503;SDS011;39387;50.998;22.340;2023-03-19T01:25:56;11.05;;;6.30;;
53503;SDS011;39387;50.998;22.340;2023-03-19T01:28:23;9.95;;;5.97;;
53503;SDS011;39387;50.998;22.340;2023-03-19T01:30:51;10.18;;;5.55;;
53503;SDS011;39387;50.998;22.340;2023-03-19T01:33:18;10.65;;;5.55;;
53503;SDS011;39387;50.998;22.340;2023-03-19T01:35:47;12.57;;;5.50;;
53503;SDS011;39387;50.998;22.340;2023-03-19T01:38:14;10.73;;;6.05;;
53503;SDS011;39387;50.998;22.340;2023-03-19T01:40:43;9.32;;;5.43;;
53503;SDS011;39387;50.998;22.340;2023-03-19T01:43:11;9.18;;;5.50;;
53503;SDS011;39387;50.998;22.340;2023-03-19T01:45:42;9.90;;;5.38;;
53503;SDS011;39387;50.998;22.340;2023-03-19T01:48:15;9.68;;;5.60;;
53503;SDS011;39387;50.998;22.340;2023-03-19T01:50:47;11.35;;;5.65;;
53503;SDS011;39387;50.998;22.340;2023-03-19T01:53:18;11.82;;;6.18;;
53503;SDS011;39387;50.998;22.340;2023-03-19T01:55:47;7.40;;;4.78;;
53503;SDS011;39387;50.998;22.340;2023-03-19T01:58:14;9.38;;;5.35;;
53503;SDS011;39387;50.998;22.340;2023-03-19T02:00:42;9.10;;;5.30;;
53503;SDS011;39387;50.998;22.340;2023-03-19T02:03:09;8.18;;;4.70;;
53503;SDS011;39387;50.998;22.340;2023-03-19T02:05:37;10.27;;;4.95;;
53503;SDS011;39387;50.998;22.340;2023-03-19T02:08:08;10.93;;;5.70;;
53503;SDS011;39387;50.998;22.340;2023-03-19T02:10:38;9.98;;;6.15;;
53503;SDS011;39387;50.998;22.340;2023-03-19T02:13:06;9.88;;;5.72;;
53503;SDS011;39387;50.998;22.340;2023-03-19T02:15:33;9.30;;;5.15;;
53503;SDS011;39387;50.998;22.340;2023-03-19T02:18:00;11.10;;;5.57;;
53503;SDS011;39387;50.998;22.340;2023-03-19T02:20:29;9.52;;;5.55;;
53503;SDS011;39387;50.998;22.340;2023-03-19T02:23:01;8.70;;;4.93;;
53503;SDS011;39387;50.998;22.340;2023-03-19T02:25:36;7.25;;;4.32;;
53503;SDS011;39387;50.998;22.340;2023-03-19T02:28:07;9.80;;;5.28;;
53503;SDS011;39387;50.998;22.340;2023-03-19T02:30:36;8.95;;;4.63;;
53503;SDS011;39387;50.998;22.340;2023-03-19T02:33:03;7.22;;;4.53;;
53503;SDS011;39387;50.998;22.340;2023-03-19T02:35:31;8.02;;;4.13;;
53503;SDS011;39387;50.998;22.340;2023-03-19T02:38:00;8.10;;;4.40;;
53503;SDS011;39387;50.998;22.340;2023-03-19T02:40:29;8.88;;;4.50;;
53503;SDS011;39387;50.998;22.340;2023-03-19T02:43:00;7.72;;;4.85;;
53503;SDS011;39387;50.998;22.340;2023-03-19T02:45:29;8.45;;;4.65;;
53503;SDS011;39387;50.998;22.340;2023-03-19T02:47:57;9.15;;;4.68;;
53503;SDS011;39387;50.998;22.340;2023-03-19T02:50:25;9.30;;;5.15;;
53503;SDS011;39387;50.998;22.340;2023-03-19T02:52:52;7.40;;;4.57;;
53503;SDS011;39387;50.998;22.340;2023-03-19T02:55:19;8.02;;;4.30;;
53503;SDS011;39387;50.998;22.340;2023-03-19T02:57:47;7.53;;;4.50;;
53503;SDS011;39387;50.998;22.340;2023-03-19T03:00:14;7.60;;;4.57;;
53503;SDS011;39387;50.998;22.340;2023-03-19T03:02:44;8.13;;;4.53;;
53503;SDS011;39387;50.998;22.340;2023-03-19T03:05:12;7.40;;;4.47;;
53503;SDS011;39387;50.998;22.340;2023-03-19T03:07:39;8.43;;;4.63;;
53503;SDS011;39387;50.998;22.340;2023-03-19T03:10:08;8.05;;;4.53;;
53503;SDS011;39387;50.998;22.340;2023-03-19T03:12:36;8.77;;;5.07;;
53503;SDS011;39387;50.998;22.340;2023-03-19T03:15:05;8.18;;;4.15;;
53503;SDS011;39387;50.998;22.340;2023-03-19T03:17:34;7.82;;;4.50;;
53503;SDS011;39387;50.998;22.340;2023-03-19T03:20:05;8.43;;;4.50;;
53503;SDS011;39387;50.998;22.340;2023-03-19T03:22:33;8.52;;;4.60;;
53503;SDS011;39387;50.998;22.340;2023-03-19T03:25:01;8.93;;;4.78;;
53503;SDS011;39387;50.998;22.340;2023-03-19T03:27:28;10.65;;;4.88;;
53503;SDS011;39387;50.998;22.340;2023-03-19T03:29:56;9.32;;;5.65;;
53503;SDS011;39387;50.998;22.340;2023-03-19T03:32:23;9.10;;;4.93;;
53503;SDS011;39387;50.998;22.340;2023-03-19T03:34:51;7.70;;;4.68;;
53503;SDS011;39387;50.998;22.340;2023-03-19T03:37:19;8.50;;;4.88;;
53503;SDS011;39387;50.998;22.340;2023-03-19T03:39:47;11.40;;;5.38;;
53503;SDS011;39387;50.998;22.340;2023-03-19T03:42:14;9.30;;;5.13;;
53503;SDS011;39387;50.998;22.340;2023-03-19T03:44:42;11.68;;;5.32;;
53503;SDS011;39387;50.998;22.340;2023-03-19T03:47:10;8.35;;;4.95;;
53503;SDS011;39387;50.998;22.340;2023-03-19T03:49:38;11.48;;;5.20;;
53503;SDS011;39387;50.998;22.340;2023-03-19T03:52:06;12.70;;;5.68;;
53503;SDS011;39387;50.998;22.340;2023-03-19T03:54:35;10.43;;;5.35;;
53503;SDS011;39387;50.998;22.340;2023-03-19T03:57:02;9.07;;;5.03;;
53503;SDS011;39387;50.998;22.340;2023-03-19T03:59:30;10.63;;;5.15;;
53503;SDS011;39387;50.998;22.340;2023-03-19T04:01:57;10.82;;;6.00;;
53503;SDS011;39387;50.998;22.340;2023-03-19T04:04:24;8.95;;;5.10;;
53503;SDS011;39387;50.998;22.340;2023-03-19T04:06:52;11.27;;;6.07;;
53503;SDS011;39387;50.998;22.340;2023-03-19T04:09:19;10.40;;;5.60;;
53503;SDS011;39387;50.998;22.340;2023-03-19T04:11:48;10.13;;;5.70;;
53503;SDS011;39387;50.998;22.340;2023-03-19T04:14:16;9.68;;;5.45;;
53503;SDS011;39387;50.998;22.340;2023-03-19T04:16:43;11.50;;;5.80;;
53503;SDS011;39387;50.998;22.340;2023-03-19T04:19:11;9.25;;;5.30;;
53503;SDS011;39387;50.998;22.340;2023-03-19T04:21:38;10.25;;;5.22;;
53503;SDS011;39387;50.998;22.340;2023-03-19T04:24:06;8.88;;;4.95;;
53503;SDS011;39387;50.998;22.340;2023-03-19T04:26:34;11.10;;;5.80;;
53503;SDS011;39387;50.998;22.340;2023-03-19T04:29:03;8.88;;;5.05;;
53503;SDS011;39387;50.998;22.340;2023-03-19T04:31:32;8.60;;;5.13;;
53503;SDS011;39387;50.998;22.340;2023-03-19T04:34:00;11.98;;;5.80;;
53503;SDS011;39387;50.998;22.340;2023-03-19T04:36:27;11.55;;;5.90;;
53503;SDS011;39387;50.998;22.340;2023-03-19T04:38:54;8.88;;;5.68;;
53503;SDS011;39387;50.998;22.340;2023-03-19T04:41:21;8.50;;;5.30;;
53503;SDS011;39387;50.998;22.340;2023-03-19T04:43:49;12.38;;;6.38;;
53503;SDS011;39387;50.998;22.340;2023-03-19T04:46:17;13.80;;;6.57;;
53503;SDS011;39387;50.998;22.340;2023-03-19T04:48:44;9.65;;;6.43;;
53503;SDS011;39387;50.998;22.340;2023-03-19T04:51:12;9.77;;;5.85;;
53503;SDS011;39387;50.998;22.340;2023-03-19T04:53:39;13.35;;;6.28;;
53503;SDS011;39387;50.998;22.340;2023-03-19T04:56:06;10.48;;;6.30;;
53503;SDS011;39387;50.998;22.340;2023-03-19T04:58:34;11.13;;;5.97;;
53503;SDS011;39387;50.998;22.340;2023-03-19T05:01:02;10.73;;;6.35;;
53503;SDS011;39387;50.998;22.340;2023-03-19T05:03:31;11.40;;;5.95;;
53503;SDS011;39387;50.998;22.340;2023-03-19T05:05:59;10.85;;;5.90;;
53503;SDS011;39387;50.998;22.340;2023-03-19T05:08:26;11.43;;;6.13;;
53503;SDS011;39387;50.998;22.340;2023-03-19T05:10:53;12.43;;;6.05;;
53503;SDS011;39387;50.998;22.340;2023-03-19T05:13:20;11.57;;;5.95;;
53503;SDS011;39387;50.998;22.340;2023-03-19T05:15:47;11.00;;;6.05;;
53503;SDS011;39387;50.998;22.340;2023-03-19T05:18:15;11.43;;;6.38;;
53503;SDS011;39387;50.998;22.340;2023-03-19T05:20:43;11.65;;;5.50;;
53503;SDS011;39387;50.998;22.340;2023-03-19T05:23:11;9.93;;;5.80;;
53503;SDS011;39387;50.998;22.340;2023-03-19T05:25:38;13.30;;;6.28;;
53503;SDS011;39387;50.998;22.340;2023-03-19T05:28:06;12.52;;;6.13;;
53503;SDS011;39387;50.998;22.340;2023-03-19T05:30:33;10.40;;;6.43;;
53503;SDS011;39387;50.998;22.340;2023-03-19T05:33:01;9.93;;;6.18;;
53503;SDS011;39387;50.998;22.340;2023-03-19T05:35:29;11.10;;;6.03;;
53503;SDS011;39387;50.998;22.340;2023-03-19T05:37:57;10.57;;;5.63;;
53503;SDS011;39387;50.998;22.340;2023-03-19T05:40:25;10.48;;;6.07;;
53503;SDS011;39387;50.998;22.340;2023-03-19T05:42:52;10.18;;;5.95;;
53503;SDS011;39387;50.998;22.340;2023-03-19T05:45:19;9.95;;;5.95;;
53503;SDS011;39387;50.998;22.340;2023-03-19T05:47:47;12.30;;;6.70;;
53503;SDS011;39387;50.998;22.340;2023-03-19T05:50:15;9.68;;;5.65;;
53503;SDS011;39387;50.998;22.340;2023-03-19T05:52:42;9.13;;;5.35;;
53503;SDS011;39387;50.998;22.340;2023-03-19T05:55:11;12.35;;;5.57;;
53503;SDS011;39387;50.998;22.340;2023-03-19T05:57:38;12.20;;;5.75;;
53503;SDS011;39387;50.998;22.340;2023-03-19T06:00:06;10.68;;;5.38;;
53503;SDS011;39387;50.998;22.340;2023-03-19T06:02:34;11.20;;;5.80;;
53503;SDS011;39387;50.998;22.340;2023-03-19T06:05:02;8.25;;;4.80;;
53503;SDS011;39387;50.998;22.340;2023-03-19T06:07:29;11.07;;;5.50;;
53503;SDS011;39387;50.998;22.340;2023-03-19T06:09:57;11.48;;;5.70;;
53503;SDS011;39387;50.998;22.340;2023-03-19T06:12:25;10.88;;;5.85;;
53503;SDS011;39387;50.998;22.340;2023-03-19T06:14:52;10.55;;;5.35;;
53503;SDS011;39387;50.998;22.340;2023-03-19T06:17:20;8.80;;;5.03;;
53503;SDS011;39387;50.998;22.340;2023-03-19T06:19:47;7.80;;;5.20;;
53503;SDS011;39387;50.998;22.340;2023-03-19T06:22:15;8.70;;;5.00;;
53503;SDS011;39387;50.998;22.340;2023-03-19T06:24:42;6.13;;;4.78;;
53503;SDS011;39387;50.998;22.340;2023-03-19T06:27:09;8.65;;;4.65;;
53503;SDS011;39387;50.998;22.340;2023-03-19T06:29:38;11.15;;;5.40;;
53503;SDS011;39387;50.998;22.340;2023-03-19T06:32:06;9.23;;;5.15;;
53503;SDS011;39387;50.998;22.340;2023-03-19T06:34:33;8.77;;;5.65;;
53503;SDS011;39387;50.998;22.340;2023-03-19T06:37:00;9.90;;;4.88;;
53503;SDS011;39387;50.998;22.340;2023-03-19T06:39:28;8.25;;;4.80;;
53503;SDS011;39387;50.998;22.340;2023-03-19T06:41:56;9.52;;;5.20;;
53503;SDS011;39387;50.998;22.340;2023-03-19T06:44:23;8.02;;;5.15;;
53503;SDS011;39387;50.998;22.340;2023-03-19T06:46:52;10.23;;;5.53;;
53503;SDS011;39387;50.998;22.340;2023-03-19T06:49:20;13.18;;;7.03;;
53503;SDS011;39387;50.998;22.340;2023-03-19T06:51:47;12.15;;;6.55;;
53503;SDS011;39387;50.998;22.340;2023-03-19T06:54:15;12.30;;;6.70;;
53503;SDS011;39387;50.998;22.340;2023-03-19T06:56:42;10.27;;;6.28;;
53503;SDS011;39387;50.998;22.340;2023-03-19T06:59:10;8.88;;;5.25;;
53503;SDS011;39387;50.998;22.340;2023-03-19T07:01:38;11.95;;;5.13;;
53503;SDS011;39387;50.998;22.340;2023-03-19T07:04:07;9.88;;;5.32;;
53503;SDS011;39387;50.998;22.340;2023-03-19T07:06:35;7.75;;;5.22;;
53503;SDS011;39387;50.998;22.340;2023-03-19T07:09:03;9.13;;;5.07;;
53503;SDS011;39387;50.998;22.340;2023-03-19T07:11:30;8.23;;;5.30;;
53503;SDS011;39387;50.998;22.340;2023-03-19T07:13:58;8.55;;;5.80;;
53503;SDS011;39387;50.998;22.340;2023-03-19T07:16:25;9.25;;;5.20;;
53503;SDS011;39387;50.998;22.340;2023-03-19T07:18:52;8.48;;;5.43;;
53503;SDS011;39387;50.998;22.340;2023-03-19T07:21:22;10.68;;;5.53;;
53503;SDS011;39387;50.998;22.340;2023-03-19T07:23:49;7.90;;;5.05;;
53503;SDS011;39387;50.998;22.340;2023-03-19T07:26:17;9.77;;;5.35;;
53503;SDS011;39387;50.998;22.340;2023-03-19T07:28:44;8.05;;;5.13;;
53503;SDS011;39387;50.998;22.340;2023-03-19T07:31:12;10.02;;;5.45;;
53503;SDS011;39387;50.998;22.340;2023-03-19T07:33:41;9.27;;;5.28;;
53503;SDS011;39387;50.998;22.340;2023-03-19T07:36:08;10.63;;;5.47;;
53503;SDS011;39387;50.998;22.340;2023-03-19T07:38:37;8.20;;;5.57;;
53503;SDS011;39387;50.998;22.340;2023-03-19T07:41:04;10.38;;;5.88;;
53503;SDS011;39387;50.998;22.340;2023-03-19T07:43:32;9.18;;;5.53;;
53503;SDS011;39387;50.998;22.340;2023-03-19T07:45:59;10.77;;;5.75;;
53503;SDS011;39387;50.998;22.340;2023-03-19T07:48:27;9.45;;;5.68;;
53503;SDS011;39387;50.998;22.340;2023-03-19T07:50:55;9.38;;;5.32;;
53503;SDS011;39387;50.998;22.340;2023-03-19T07:53:23;7.88;;;5.43;;
53503;SDS011;39387;50.998;22.340;2023-03-19T07:55:52;7.43;;;5.03;;
53503;SDS011;39387;50.998;22.340;2023-03-19T07:58:19;9.95;;;5.05;;
53503;SDS011;39387;50.998;22.340;2023-03-19T08:00:47;9.35;;;5.55;;
53503;SDS011;39387;50.998;22.340;2023-03-19T08:03:15;9.50;;;5.38;;
53503;SDS011;39387;50.998;22.340;2023-03-19T08:05:42;9.15;;;5.82;;
53503;SDS011;39387;50.998;22.340;2023-03-19T08:08:10;11.07;;;5.47;;
53503;SDS011;39387;50.998;22.340;2023-03-19T08:10:37;10.23;;;6.15;;
53503;SDS011;39387;50.998;22.340;2023-03-19T08:13:06;10.95;;;5.93;;
53503;SDS011;39387;50.998;22.340;2023-03-19T08:15:34;9.35;;;6.03;;
53503;SDS011;39387;50.998;22.340;2023-03-19T08:18:02;10.73;;;5.57;;
53503;SDS011;39387;50.998;22.340;2023-03-19T08:20:31;9.20;;;5.97;;
53503;SDS011;39387;50.998;22.340;2023-03-19T08:22:58;9.55;;;5.60;;
53503;SDS011;39387;50.998;22.340;2023-03-19T08:25:26;10.15;;;5.60;;
53503;SDS011;39387;50.998;22.340;2023-03-19T08:27:56;9.05;;;5.80;;
53503;SDS011;39387;50.998;22.340;2023-03-19T08:30:25;9.88;;;5.95;;
53503;SDS011;39387;50.998;22.340;2023-03-19T08:32:53;9.10;;;5.90;;
53503;SDS011;39387;50.998;22.340;2023-03-19T08:35:21;10.30;;;5.57;;
53503;SDS011;39387;50.998;22.340;2023-03-19T08:37:48;9.50;;;5.55;;
53503;SDS011;39387;50.998;22.340;2023-03-19T08:40:16;9.63;;;5.80;;
53503;SDS011;39387;50.998;22.340;2023-03-19T08:42:43;9.02;;;5.85;;
53503;SDS011;39387;50.998;22.340;2023-03-19T08:45:12;11.15;;;5.90;;
53503;SDS011;39387;50.998;22.340;2023-03-19T08:47:41;8.98;;;5.65;;
53503;SDS011;39387;50.998;22.340;2023-03-19T08:50:09;9.18;;;5.90;;
53503;SDS011;39387;50.998;22.340;2023-03-19T08:52:37;9.77;;;6.63;;
53503;SDS011;39387;50.998;22.340;2023-03-19T08:55:05;10.93;;;6.25;;
53503;SDS011;39387;50.998;22.340;2023-03-19T08:57:33;7.85;;;5.55;;
53503;SDS011;39387;50.998;22.340;2023-03-19T09:00:00;7.90;;;5.55;;
53503;SDS011;39387;50.998;22.340;2023-03-19T09:02:28;7.95;;;5.53;;
53503;SDS011;39387;50.998;22.340;2023-03-19T09:04:57;10.98;;;7.63;;
53503;SDS011;39387;50.998;22.340;2023-03-19T09:07:25;11.32;;;7.35;;
53503;SDS011;39387;50.998;22.340;2023-03-19T09:09:52;8.88;;;6.07;;
53503;SDS011;39387;50.998;22.340;2023-03-19T09:12:19;8.23;;;6.07;;
53503;SDS011;39387;50.998;22.340;2023-03-19T09:14:47;10.05;;;5.95;;
53503;SDS011;39387;50.998;22.340;2023-03-19T09:17:14;8.30;;;5.45;;
53503;SDS011;39387;50.998;22.340;2023-03-19T09:19:43;9.85;;;6.25;;
53503;SDS011;39387;50.998;22.340;2023-03-19T09:22:11;9.32;;;6.30;;
53503;SDS011;39387;50.998;22.340;2023-03-19T09:24:39;8.55;;;5.15;;
53503;SDS011;39387;50.998;22.340;2023-03-19T09:27:06;8.13;;;5.47;;
53503;SDS011;39387;50.998;22.340;2023-03-19T09:29:34;8.65;;;5.57;;
53503;SDS011;39387;50.998;22.340;2023-03-19T09:32:01;9.05;;;5.50;;
53503;SDS011;39387;50.998;22.340;2023-03-19T09:34:29;7.63;;;5.50;;
53503;SDS011;39387;50.998;22.340;2023-03-19T09:36:56;9.73;;;5.47;;
53503;SDS011;39387;50.998;22.340;2023-03-19T09:39:25;8.38;;;5.55;;
53503;SDS011;39387;50.998;22.340;2023-03-19T09:41:58;9.63;;;5.97;;
53503;SDS011;39387;50.998;22.340;2023-03-19T09:44:32;7.95;;;5.28;;
53503;SDS011;39387;50.998;22.340;2023-03-19T09:47:05;8.63;;;5.60;;
53503;SDS011;39387;50.998;22.340;2023-03-19T09:49:40;9.60;;;5.63;;
53503;SDS011;39387;50.998;22.340;2023-03-19T09:52:12;13.10;;;6.10;;
53503;SDS011;39387;50.998;22.340;2023-03-19T09:54:48;8.35;;;5.55;;
53503;SDS011;39387;50.998;22.340;2023-03-19T09:57:18;9.90;;;5.70;;
53503;SDS011;39387;50.998;22.340;2023-03-19T09:59:45;8.82;;;5.80;;
53503;SDS011;39387;50.998;22.340;2023-03-19T10:02:33;8.95;;;5.50;;
53503;SDS011;39387;50.998;22.340;2023-03-19T10:05:18;8.60;;;5.57;;
53503;SDS011;39387;50.998;22.340;2023-03-19T10:08:00;7.90;;;5.15;;
53503;SDS011;39387;50.998;22.340;2023-03-19T10:10:48;8.85;;;5.43;;
53503;SDS011;39387;50.998;22.340;2023-03-19T10:13:25;9.05;;;5.40;;
53503;SDS011;39387;50.998;22.340;2023-03-19T10:16:04;9.70;;;6.57;;
53503;SDS011;39387;50.998;22.340;2023-03-19T10:18:34;9.50;;;6.10;;
53503;SDS011;39387;50.998;22.340;2023-03-19T10:21:05;10.48;;;6.45;;
53503;SDS011;39387;50.998;22.340;2023-03-19T10:23:39;8.15;;;5.30;;
53503;SDS011;39387;50.998;22.340;2023-03-19T10:26:13;8.93;;;5.15;;
53503;SDS011;39387;50.998;22.340;2023-03-19T10:28:43;6.80;;;4.70;;
53503;SDS011;39387;50.998;22.340;2023-03-19T10:31:17;7.93;;;5.47;;
53503;SDS011;39387;50.998;22.340;2023-03-19T10:33:52;9.38;;;5.30;;
53503;SDS011;39387;50.998;22.340;2023-03-19T10:36:25;8.27;;;4.50;;
53503;SDS011;39387;50.998;22.340;2023-03-19T10:38:54;7.38;;;4.88;;
53503;SDS011;39387;50.998;22.340;2023-03-19T10:41:30;7.82;;;5.43;;
53503;SDS011;39387;50.998;22.340;2023-03-19T10:44:09;8.15;;;5.55;;
53503;SDS011;39387;50.998;22.340;2023-03-19T10:46:42;8.52;;;5.70;;
53503;SDS011;39387;50.998;22.340;2023-03-19T10:49:12;7.80;;;4.80;;
53503;SDS011;39387;50.998;22.340;2023-03-19T10:51:42;8.40;;;5.43;;
53503;SDS011;39387;50.998;22.340;2023-03-19T10:54:16;7.70;;;5.28;;
53503;SDS011;39387;50.998;22.340;2023-03-19T10:56:47;9.15;;;5.45;;
53503;SDS011;39387;50.998;22.340;2023-03-19T10:59:22;7.95;;;5.03;;
53503;SDS011;39387;50.998;22.340;2023-03-19T11:01:55;8.55;;;5.53;;
53503;SDS011;39387;50.998;22.340;2023-03-19T11:04:23;8.80;;;5.35;;
53503;SDS011;39387;50.998;22.340;2023-03-19T11:06:53;8.15;;;5.25;;
53503;SDS011;39387;50.998;22.340;2023-03-19T11:09:23;9.63;;;5.65;;
53503;SDS011;39387;50.998;22.340;2023-03-19T11:11:56;7.43;;;5.57;;
53503;SDS011;39387;50.998;22.340;2023-03-19T11:14:26;6.68;;;5.07;;
53503;SDS011;39387;50.998;22.340;2023-03-19T11:16:59;8.73;;;5.60;;
53503;SDS011;39387;50.998;22.340;2023-03-19T11:19:31;8.40;;;5.65;;
53503;SDS011;39387;50.998;22.340;2023-03-19T11:22:02;8.13;;;5.60;;
53503;SDS011;39387;50.998;22.340;2023-03-19T11:24:36;8.25;;;5.50;;
53503;SDS011;39387;50.998;22.340;2023-03-19T11:27:06;9.23;;;5.35;;
53503;SDS011;39387;50.998;22.340;2023-03-19T11:29:33;7.60;;;5.28;;
53503;SDS011;39387;50.998;22.340;2023-03-19T11:32:09;8.25;;;5.38;;
53503;SDS011;39387;50.998;22.340;2023-03-19T11:34:48;7.72;;;4.85;;
53503;SDS011;39387;50.998;22.340;2023-03-19T11:37:20;7.88;;;5.28;;
53503;SDS011;39387;50.998;22.340;2023-03-19T11:39:55;8.65;;;5.65;;
53503;SDS011;39387;50.998;22.340;2023-03-19T11:42:41;8.27;;;5.18;;
53503;SDS011;39387;50.998;22.340;2023-03-19T11:45:19;9.85;;;5.38;;
53503;SDS011;39387;50.998;22.340;2023-03-19T11:47:55;8.23;;;4.85;;
53503;SDS011;39387;50.998;22.340;2023-03-19T11:50:29;8.20;;;5.18;;
53503;SDS011;39387;50.998;22.340;2023-03-19T11:53:08;7.28;;;5.13;;
53503;SDS011;39387;50.998;22.340;2023-03-19T11:55:40;8.90;;;5.22;;
53503;SDS011;39387;50.998;22.340;2023-03-19T12:00:59;8.48;;;5.60;;
53503;SDS011;39387;50.998;22.340;2023-03-19T12:03:44;7.70;;;5.20;;
53503;SDS011;39387;50.998;22.340;2023-03-19T12:06:27;12.48;;;6.22;;
53503;SDS011;39387;50.998;22.340;2023-03-19T12:09:03;10.70;;;6.50;;
53503;SDS011;39387;50.998;22.340;2023-03-19T12:11:39;8.25;;;5.18;;
53503;SDS011;39387;50.998;22.340;2023-03-19T12:14:18;8.98;;;5.65;;
53503;SDS011;39387;50.998;22.340;2023-03-19T12:16:58;8.65;;;6.25;;
53503;SDS011;39387;50.998;22.340;2023-03-19T12:19:54;10.45;;;6.10;;
53503;SDS011;39387;50.998;22.340;2023-03-19T12:22:38;11.07;;;6.43;;
53503;SDS011;39387;50.998;22.340;2023-03-19T12:25:18;11.65;;;6.20;;
53503;SDS011;39387;50.998;22.340;2023-03-19T12:27:50;9.48;;;5.72;;
53503;SDS011;39387;50.998;22.340;2023-03-19T12:30:24;8.43;;;5.22;;
53503;SDS011;39387;50.998;22.340;2023-03-19T12:33:01;7.50;;;5.22;;
53503;SDS011;39387;50.998;22.340;2023-03-19T12:35:38;8.17;;;5.57;;
53503;SDS011;39387;50.998;22.340;2023-03-19T12:38:09;10.18;;;6.00;;
53503;SDS011;39387;50.998;22.340;2023-03-19T12:40:39;8.95;;;5.60;;
53503;SDS011;39387;50.998;22.340;2023-03-19T12:43:13;11.23;;;5.70;;
53503;SDS011;39387;50.998;22.340;2023-03-19T12:45:46;8.98;;;5.68;;
53503;SDS011;39387;50.998;22.340;2023-03-19T12:48:16;7.22;;;5.00;;
53503;SDS011;39387;50.998;22.340;2023-03-19T12:50:48;7.30;;;5.00;;
53503;SDS011;39387;50.998;22.340;2023-03-19T12:53:21;9.80;;;5.75;;
53503;SDS011;39387;50.998;22.340;2023-03-19T12:55:55;8.73;;;5.40;;
53503;SDS011;39387;50.998;22.340;2023-03-19T12:58:25;7.70;;;5.63;;
53503;SDS011;39387;50.998;22.340;2023-03-19T13:01:02;7.13;;;4.90;;
53503;SDS011;39387;50.998;22.340;2023-03-19T13:03:36;9.88;;;5.70;;
53503;SDS011;39387;50.998;22.340;2023-03-19T13:06:07;7.40;;;4.72;;
53503;SDS011;39387;50.998;22.340;2023-03-19T13:08:36;8.40;;;5.10;;
53503;SDS011;39387;50.998;22.340;2023-03-19T13:11:09;8.88;;;5.20;;
53503;SDS011;39387;50.998;22.340;2023-03-19T13:13:38;10.02;;;5.85;;
53503;SDS011;39387;50.998;22.340;2023-03-19T13:16:11;7.32;;;4.85;;
53503;SDS011;39387;50.998;22.340;2023-03-19T13:18:49;7.63;;;5.53;;
53503;SDS011;39387;50.998;22.340;2023-03-19T13:21:24;8.95;;;5.43;;
53503;SDS011;39387;50.998;22.340;2023-03-19T13:23:58;8.30;;;5.28;;
53503;SDS011;39387;50.998;22.340;2023-03-19T13:26:30;8.48;;;5.03;;
53503;SDS011;39387;50.998;22.340;2023-03-19T13:29:00;9.07;;;5.28;;
53503;SDS011;39387;50.998;22.340;2023-03-19T13:31:35;7.75;;;5.57;;
53503;SDS011;39387;50.998;22.340;2023-03-19T13:34:03;9.27;;;5.05;;
53503;SDS011;39387;50.998;22.340;2023-03-19T13:36:34;7.07;;;4.63;;
53503;SDS011;39387;50.998;22.340;2023-03-19T13:39:03;6.80;;;4.60;;
53503;SDS011;39387;50.998;22.340;2023-03-19T13:41:51;9.07;;;5.22;;
53503;SDS011;39387;50.998;22.340;2023-03-19T13:44:27;8.20;;;5.25;;
53503;SDS011;39387;50.998;22.340;2023-03-19T13:47:01;8.45;;;5.45;;
53503;SDS011;39387;50.998;22.340;2023-03-19T13:49:30;9.35;;;5.55;;
53503;SDS011;39387;50.998;22.340;2023-03-19T13:55:18;7.95;;;5.15;;
53503;SDS011;39387;50.998;22.340;2023-03-19T13:57:59;7.55;;;5.15;;
53503;SDS011;39387;50.998;22.340;2023-03-19T14:00:57;7.95;;;5.32;;
53503;SDS011;39387;50.998;22.340;2023-03-19T14:03:27;9.27;;;5.07;;
53503;SDS011;39387;50.998;22.340;2023-03-19T14:05:55;7.72;;;5.43;;
53503;SDS011;39387;50.998;22.340;2023-03-19T14:08:25;9.77;;;6.18;;
53503;SDS011;39387;50.998;22.340;2023-03-19T14:10:54;8.05;;;5.43;;
53503;SDS011;39387;50.998;22.340;2023-03-19T14:13:25;7.72;;;5.22;;
53503;SDS011;39387;50.998;22.340;2023-03-19T14:15:59;8.80;;;5.80;;
53503;SDS011;39387;50.998;22.340;2023-03-19T14:18:42;9.23;;;5.20;;
53503;SDS011;39387;50.998;22.340;2023-03-19T14:21:10;8.25;;;5.38;;
53503;SDS011;39387;50.998;22.340;2023-03-19T14:23:41;8.05;;;5.30;;
53503;SDS011;39387;50.998;22.340;2023-03-19T14:26:18;8.13;;;5.57;;
53503;SDS011;39387;50.998;22.340;2023-03-19T14:28:55;9.10;;;5.43;;
53503;SDS011;39387;50.998;22.340;2023-03-19T14:31:27;7.68;;;5.03;;
53503;SDS011;39387;50.998;22.340;2023-03-19T14:34:00;8.43;;;5.60;;
53503;SDS011;39387;50.998;22.340;2023-03-19T14:38:56;8.10;;;5.30;;
53503;SDS011;39387;50.998;22.340;2023-03-19T14:41:26;7.65;;;5.07;;
53503;SDS011;39387;50.998;22.340;2023-03-19T14:44:04;8.02;;;5.00;;
53503;SDS011;39387;50.998;22.340;2023-03-19T14:47:01;8.00;;;5.15;;
53503;SDS011;39387;50.998;22.340;2023-03-19T14:49:41;7.10;;;4.72;;
53503;SDS011;39387;50.998;22.340;2023-03-19T14:52:22;8.20;;;5.10;;
53503;SDS011;39387;50.998;22.340;2023-03-19T14:54:52;9.15;;;5.15;;
53503;SDS011;39387;50.998;22.340;2023-03-19T14:59:52;8.82;;;5.22;;